createdAt,value
2022-08-04T00:02:15.691Z,16.31
2022-08-04T00:04:48.327Z,16.29
2022-08-04T00:07:44.212Z,16.10
2022-08-04T00:10:11.191Z,16.07
2022-08-04T00:12:43.394Z,16.13
2022-08-04T00:15:15.577Z,16.10
2022-08-04T00:17:54.178Z,16.28
2022-08-04T00:20:21.473Z,16.08
2022-08-04T00:22:48.866Z,16.06
2022-08-04T00:25:16.428Z,16.14
2022-08-04T00:27:43.601Z,15.98
2022-08-04T00:30:10.375Z,15.92
2022-08-04T00:32:43.702Z,16.00
2022-08-04T00:35:14.076Z,15.85
2022-08-04T00:37:43.848Z,16.00
2022-08-04T00:40:18.638Z,16.01
2022-08-04T00:42:59.202Z,16.00
2022-08-04T00:45:35.694Z,16.00
2022-08-04T00:48:48.915Z,15.95
2022-08-04T00:52:31.806Z,15.89
2022-08-04T00:55:06.964Z,15.82
2022-08-04T00:58:00.325Z,15.97
2022-08-04T01:00:28.227Z,15.66
2022-08-04T01:03:32.340Z,15.93
2022-08-04T01:06:34.536Z,15.90
2022-08-04T01:09:21.553Z,15.83
2022-08-04T01:12:08.107Z,15.78
2022-08-04T01:14:59.624Z,15.69
2022-08-04T01:18:04.018Z,15.53
2022-08-04T01:20:54.129Z,15.44
2022-08-04T01:23:59.000Z,15.61
2022-08-04T01:26:43.700Z,15.55
2022-08-04T01:29:16.258Z,15.57
2022-08-04T01:31:48.786Z,15.60
2022-08-04T01:34:16.512Z,15.54
2022-08-04T01:37:10.588Z,15.56
2022-08-04T01:39:44.629Z,15.24
2022-08-04T01:42:12.647Z,15.52
2022-08-04T01:44:51.276Z,15.17
2022-08-04T01:47:21.384Z,15.33
2022-08-04T01:49:50.290Z,15.43
2022-08-04T01:52:18.516Z,15.41
2022-08-04T01:54:46.874Z,15.22
2022-08-04T01:57:37.978Z,15.12
2022-08-04T02:00:05.871Z,15.31
2022-08-04T02:02:33.686Z,15.23
2022-08-04T02:05:00.176Z,15.25
2022-08-04T02:07:51.366Z,15.15
2022-08-04T02:10:42.760Z,15.29
2022-08-04T02:13:15.276Z,15.43
2022-08-04T02:16:05.107Z,15.62
2022-08-04T02:18:44.514Z,15.25
2022-08-04T02:21:15.856Z,15.02
2022-08-04T02:23:45.937Z,15.14
2022-08-04T02:26:22.165Z,15.24
2022-08-04T02:29:03.677Z,15.29
2022-08-04T02:31:44.259Z,15.29
2022-08-04T02:34:28.010Z,15.38
2022-08-04T02:36:55.694Z,15.20
2022-08-04T02:39:23.607Z,15.40
2022-08-04T02:41:52.959Z,15.06
2022-08-04T02:44:23.683Z,15.08
2022-08-04T02:46:53.014Z,15.03
2022-08-04T02:49:22.251Z,14.90
2022-08-04T02:51:54.683Z,15.04
2022-08-04T02:54:41.035Z,14.98
2022-08-04T02:57:11.360Z,14.77
2022-08-04T02:59:57.101Z,14.98
2022-08-04T03:02:34.692Z,14.90
2022-08-04T03:05:07.357Z,14.82
2022-08-04T03:08:21.979Z,14.87
2022-08-04T03:11:20.212Z,14.82
2022-08-04T03:13:53.560Z,14.82
2022-08-04T03:16:33.453Z,14.78
2022-08-04T03:19:04.932Z,14.72
2022-08-04T03:22:08.339Z,14.57
2022-08-04T03:25:00.023Z,14.54
2022-08-04T03:28:06.083Z,14.62
2022-08-04T03:30:59.456Z,14.74
2022-08-04T03:33:46.172Z,14.69
2022-08-04T03:36:15.688Z,14.66
2022-08-04T03:39:20.622Z,14.57
2022-08-04T03:42:08.055Z,14.58
2022-08-04T03:44:53.677Z,14.63
2022-08-04T03:47:53.543Z,14.53
2022-08-04T03:50:25.764Z,14.52
2022-08-04T03:53:08.887Z,14.50
2022-08-04T03:55:46.572Z,14.51
2022-08-04T03:58:46.744Z,14.46
2022-08-04T04:01:19.272Z,14.51
2022-08-04T04:04:14.406Z,14.64
2022-08-04T04:06:55.669Z,14.54
2022-08-04T04:09:57.016Z,14.38
2022-08-04T04:12:42.121Z,14.60
2022-08-04T04:15:39.573Z,14.59
2022-08-04T04:18:42.418Z,14.59
2022-08-04T04:21:18.153Z,14.66
2022-08-04T04:23:56.737Z,14.67
2022-08-04T04:26:46.750Z,14.70
2022-08-04T04:29:37.453Z,14.72
2022-08-04T04:32:34.507Z,14.75
2022-08-04T04:35:26.882Z,14.78
2022-08-04T04:38:30.577Z,14.87
2022-08-04T04:41:12.496Z,14.87
2022-08-04T04:43:56.828Z,15.00
2022-08-04T04:46:54.466Z,15.09
2022-08-04T04:49:34.897Z,15.08
2022-08-04T04:52:13.245Z,15.27
2022-08-04T04:54:45.672Z,15.19
2022-08-04T04:57:20.219Z,15.47
2022-08-04T05:00:10.329Z,15.50
2022-08-04T05:02:43.493Z,15.63
2022-08-04T05:05:15.555Z,15.71
2022-08-04T05:07:58.473Z,15.81
2022-08-04T05:10:46.693Z,15.90
2022-08-04T05:14:34.683Z,15.97
2022-08-04T05:16:30.982Z,16.05
2022-08-04T05:19:16.087Z,16.16
2022-08-04T05:21:48.143Z,16.15
2022-08-04T05:24:19.237Z,16.15
2022-08-04T05:26:50.191Z,16.31
2022-08-04T05:29:31.774Z,16.23
2022-08-04T05:32:01.787Z,16.66
2022-08-04T05:34:31.819Z,16.78
2022-08-04T05:37:01.719Z,16.82
2022-08-04T05:39:38.929Z,17.09
2022-08-04T05:42:06.556Z,17.30
2022-08-04T05:44:34.891Z,17.34
2022-08-04T05:47:04.248Z,17.47
2022-08-04T05:49:32.748Z,17.38
2022-08-04T05:52:01.854Z,17.42
2022-08-04T05:54:31.385Z,17.57
2022-08-04T05:56:59.046Z,17.65
2022-08-04T05:59:26.746Z,17.84
2022-08-04T06:01:57.095Z,18.00
2022-08-04T06:04:30.828Z,18.15
2022-08-04T06:06:57.477Z,18.15
2022-08-04T06:09:24.267Z,18.24
2022-08-04T06:12:03.071Z,18.19
2022-08-04T06:14:59.720Z,18.63
2022-08-04T06:19:57.671Z,18.57
2022-08-04T06:20:22.826Z,18.75
2022-08-04T06:22:54.528Z,19.12
2022-08-04T06:25:25.252Z,19.09
2022-08-04T06:27:53.388Z,19.17
2022-08-04T06:30:20.947Z,19.52
2022-08-04T06:33:03.394Z,19.58
2022-08-04T06:35:35.523Z,19.70
2022-08-04T06:38:11.589Z,20.06
2022-08-04T06:40:40.683Z,20.07
2022-08-04T06:43:08.486Z,20.29
2022-08-04T06:45:39.834Z,20.32
2022-08-04T06:48:09.107Z,20.65
2022-08-04T06:51:25.591Z,20.95
2022-08-04T06:53:35.954Z,20.93
2022-08-04T06:56:03.015Z,21.15
2022-08-04T06:58:32.090Z,21.14
2022-08-04T07:01:02.735Z,21.12
2022-08-04T07:03:31.026Z,21.36
2022-08-04T07:05:58.040Z,21.27
2022-08-04T07:08:27.237Z,21.46
2022-08-04T07:10:54.845Z,21.72
2022-08-04T07:13:27.848Z,22.03
2022-08-04T07:15:55.940Z,22.05
2022-08-04T07:18:22.527Z,22.09
2022-08-04T07:20:49.519Z,22.26
2022-08-04T07:23:21.624Z,22.38
2022-08-04T07:26:00.496Z,22.51
2022-08-04T07:28:46.506Z,22.71
2022-08-04T07:31:33.563Z,22.75
2022-08-04T07:34:20.626Z,22.80
2022-08-04T07:36:55.628Z,23.09
2022-08-04T07:39:27.270Z,23.33
2022-08-04T07:41:55.942Z,23.59
2022-08-04T07:44:22.414Z,23.61
2022-08-04T07:46:48.955Z,23.80
2022-08-04T07:49:54.351Z,23.96
2022-08-04T07:52:02.159Z,23.94
2022-08-04T07:54:29.311Z,24.38
2022-08-04T07:56:57.486Z,24.49
2022-08-04T07:59:24.777Z,24.66
2022-08-04T08:01:52.013Z,24.76
2022-08-04T08:04:18.948Z,24.94
2022-08-04T08:06:45.639Z,25.00
2022-08-04T08:09:18.785Z,25.19
2022-08-04T08:12:37.065Z,25.30
2022-08-04T08:14:36.344Z,25.54
2022-08-04T08:17:03.653Z,25.54
2022-08-04T08:19:34.759Z,25.61
2022-08-04T08:22:02.198Z,25.73
2022-08-04T08:24:31.077Z,25.62
2022-08-04T08:26:58.865Z,25.93
2022-08-04T08:29:26.258Z,25.80
2022-08-04T08:31:56.454Z,25.90
2022-08-04T08:34:28.803Z,26.23
2022-08-04T08:37:04.760Z,26.10
2022-08-04T08:39:59.588Z,26.37
2022-08-04T08:42:34.758Z,26.36
2022-08-04T08:45:12.275Z,26.55
2022-08-04T08:48:11.007Z,26.80
2022-08-04T08:50:53.255Z,26.74
2022-08-04T08:53:38.386Z,26.70
2022-08-04T08:56:31.173Z,26.81
2022-08-04T08:59:01.005Z,26.91
2022-08-04T09:01:48.981Z,27.01
2022-08-04T09:04:38.083Z,27.20
2022-08-04T09:07:15.639Z,27.20
2022-08-04T09:10:09.877Z,27.23
2022-08-04T09:12:39.300Z,27.43
2022-08-04T09:15:13.855Z,27.50
2022-08-04T09:17:50.051Z,27.65
2022-08-04T09:20:21.466Z,27.86
2022-08-04T09:23:06.946Z,27.89
2022-08-04T09:25:56.708Z,28.10
2022-08-04T09:28:52.877Z,28.18
2022-08-04T09:31:20.892Z,28.24
2022-08-04T09:34:04.460Z,28.21
2022-08-04T09:36:45.425Z,28.48
2022-08-04T09:39:24.562Z,28.29
2022-08-04T09:42:04.048Z,28.64
2022-08-04T09:44:55.286Z,28.80
2022-08-04T09:47:40.123Z,28.75
2022-08-04T09:50:32.114Z,28.97
2022-08-04T09:53:13.746Z,29.11
2022-08-04T09:56:18.932Z,29.17
2022-08-04T09:59:01.507Z,29.20
2022-08-04T10:01:30.480Z,29.51
2022-08-04T10:04:01.730Z,29.78
2022-08-04T10:06:59.961Z,30.00
2022-08-04T10:09:47.713Z,30.19
2022-08-04T10:12:26.440Z,30.67
2022-08-04T10:15:03.489Z,30.91
2022-08-04T10:18:04.331Z,30.88
2022-08-04T10:21:10.180Z,31.15
2022-08-04T10:24:21.853Z,31.18
2022-08-04T10:26:58.112Z,31.18
2022-08-04T10:29:31.055Z,30.83
2022-08-04T10:32:21.444Z,30.96
2022-08-04T10:35:14.075Z,31.54
2022-08-04T10:38:01.497Z,31.44
2022-08-04T10:40:49.229Z,31.31
2022-08-04T10:43:42.848Z,31.39
2022-08-04T10:46:30.149Z,31.23
2022-08-04T10:49:00.048Z,31.36
2022-08-04T10:51:58.513Z,31.27
2022-08-04T10:54:47.422Z,30.97
2022-08-04T10:57:27.116Z,31.27
2022-08-04T10:59:59.080Z,31.68
2022-08-04T11:02:58.478Z,31.42
2022-08-04T11:05:29.228Z,31.37
2022-08-04T11:08:11.493Z,31.49
2022-08-04T11:11:05.862Z,31.70
2022-08-04T11:13:45.039Z,31.63
2022-08-04T11:16:19.578Z,31.63
2022-08-04T11:19:04.397Z,31.43
2022-08-04T11:21:39.695Z,31.46
2022-08-04T11:24:22.765Z,31.72
2022-08-04T11:27:07.038Z,31.64
2022-08-04T11:29:45.689Z,31.87
2022-08-04T11:32:31.161Z,31.48
2022-08-04T11:35:04.073Z,31.63
2022-08-04T11:37:46.831Z,31.11
2022-08-04T11:40:32.897Z,30.83
2022-08-04T11:43:08.477Z,31.18
2022-08-04T11:45:40.811Z,31.50
2022-08-04T11:48:13.197Z,31.29
2022-08-04T11:50:53.971Z,31.26
2022-08-04T11:53:39.890Z,31.48
2022-08-04T11:56:12.658Z,31.29
2022-08-04T11:58:50.225Z,31.60
2022-08-04T12:01:31.477Z,31.68
2022-08-04T12:04:35.538Z,31.53
2022-08-04T12:07:53.265Z,31.64
2022-08-04T12:10:45.512Z,31.90
2022-08-04T12:13:28.015Z,31.99
2022-08-04T12:16:12.654Z,31.80
2022-08-04T12:19:16.782Z,32.06
2022-08-04T12:21:53.438Z,31.99
2022-08-04T12:24:31.091Z,32.17
2022-08-04T12:27:04.673Z,32.02
2022-08-04T12:30:56.345Z,32.26
2022-08-04T12:32:53.607Z,32.54
2022-08-04T12:35:58.153Z,32.13
2022-08-04T12:38:34.635Z,31.70
2022-08-04T12:41:04.951Z,31.89
2022-08-04T12:43:47.016Z,31.88
2022-08-04T12:46:22.159Z,32.14
2022-08-04T12:48:51.354Z,31.92
2022-08-04T12:52:06.555Z,32.07
2022-08-04T12:54:08.643Z,32.25
2022-08-04T12:56:35.769Z,32.34
2022-08-04T12:59:12.622Z,32.36
2022-08-04T13:02:07.338Z,32.16
2022-08-04T13:04:42.555Z,32.26
2022-08-04T13:07:19.472Z,32.47
2022-08-04T13:09:47.127Z,32.28
2022-08-04T13:12:16.773Z,32.32
2022-08-04T13:14:44.802Z,32.38
2022-08-04T13:17:12.599Z,32.37
2022-08-04T13:19:45.124Z,32.43
2022-08-04T13:22:16.225Z,32.62
2022-08-04T13:24:56.534Z,32.22
2022-08-04T13:27:43.293Z,32.24
2022-08-04T13:30:31.268Z,32.41
2022-08-04T13:33:00.952Z,32.03
2022-08-04T13:35:54.758Z,32.49
2022-08-04T13:38:25.562Z,32.61
2022-08-04T13:40:52.640Z,32.54
2022-08-04T13:44:16.266Z,32.41
2022-08-04T13:46:33.964Z,32.76
2022-08-04T13:52:10.910Z,32.66
2022-08-04T13:54:45.834Z,32.71
2022-08-04T13:57:31.207Z,32.66
2022-08-04T14:00:02.793Z,33.03
2022-08-04T14:02:47.829Z,33.41
2022-08-04T14:05:33.914Z,33.28
2022-08-04T14:08:05.998Z,32.48
2022-08-04T14:10:33.722Z,32.67
2022-08-04T14:13:03.346Z,33.09
2022-08-04T14:16:01.939Z,32.70
2022-08-04T14:18:26.549Z,32.77
2022-08-04T14:21:00.133Z,32.66
2022-08-04T14:23:31.796Z,32.98
2022-08-04T14:25:59.914Z,32.99
2022-08-04T14:28:47.014Z,33.10
2022-08-04T14:31:21.917Z,32.54
2022-08-04T14:34:01.063Z,33.08
2022-08-04T14:37:13.328Z,33.17
2022-08-04T14:40:19.329Z,33.43
2022-08-04T14:42:55.451Z,33.50
2022-08-04T14:45:54.042Z,33.17
2022-08-04T14:48:21.907Z,33.79
2022-08-04T14:50:49.497Z,33.78
2022-08-04T14:53:17.739Z,33.39
2022-08-04T14:55:49.600Z,33.35
2022-08-04T14:58:34.215Z,33.77
2022-08-04T15:01:11.015Z,33.70
2022-08-04T15:03:50.697Z,33.65
2022-08-04T15:06:26.219Z,33.60
2022-08-04T15:08:54.931Z,33.80
2022-08-04T15:11:23.920Z,33.62
2022-08-04T15:13:55.105Z,33.46
2022-08-04T15:16:22.944Z,33.13
2022-08-04T15:19:00.884Z,33.24
2022-08-04T15:21:28.989Z,33.30
2022-08-04T15:23:59.226Z,32.87
2022-08-04T15:26:32.105Z,33.27
2022-08-04T15:29:25.055Z,33.72
2022-08-04T15:32:04.376Z,33.97
2022-08-04T15:35:02.507Z,33.60
2022-08-04T15:37:37.059Z,33.15
2022-08-04T15:40:14.854Z,33.33
2022-08-04T15:42:49.615Z,33.80
2022-08-04T15:46:02.936Z,33.85
2022-08-04T15:48:13.628Z,34.22
2022-08-04T15:50:55.305Z,34.08
2022-08-04T15:53:23.002Z,34.10
2022-08-04T15:55:49.817Z,34.17
2022-08-04T15:58:20.359Z,33.49
2022-08-04T16:00:49.838Z,33.91
2022-08-04T16:03:59.214Z,34.03
2022-08-04T16:06:20.874Z,34.28
2022-08-04T16:08:57.954Z,34.35
2022-08-04T16:11:30.919Z,34.25
2022-08-04T16:14:01.613Z,34.39
2022-08-04T16:16:32.933Z,34.39
2022-08-04T16:19:10.053Z,34.48
2022-08-04T16:21:50.610Z,34.12
2022-08-04T16:24:36.299Z,34.19
2022-08-04T16:27:04.833Z,34.11
2022-08-04T16:29:40.681Z,34.14
2022-08-04T16:32:13.261Z,33.55
2022-08-04T16:34:59.928Z,33.85
2022-08-04T16:37:35.553Z,33.78
2022-08-04T16:40:37.631Z,33.62
2022-08-04T16:43:11.339Z,33.51
2022-08-04T16:46:03.951Z,33.55
2022-08-04T16:48:35.617Z,33.39
2022-08-04T16:51:07.959Z,33.69
2022-08-04T16:53:53.038Z,33.95
2022-08-04T16:56:29.869Z,33.93
2022-08-04T16:58:56.697Z,33.80
2022-08-04T17:01:33.770Z,33.89
2022-08-04T17:04:05.247Z,33.91
2022-08-04T17:06:37.020Z,33.67
2022-08-04T17:09:12.145Z,33.70
2022-08-04T17:11:38.726Z,33.43
2022-08-04T17:14:06.438Z,33.35
2022-08-04T17:16:36.203Z,33.54
2022-08-04T17:19:03.669Z,33.13
2022-08-04T17:21:32.450Z,32.77
2022-08-04T17:24:14.185Z,33.03
2022-08-04T17:26:54.269Z,32.98
2022-08-04T17:29:44.956Z,32.83
2022-08-04T17:32:20.761Z,32.60
2022-08-04T17:35:02.069Z,32.15
2022-08-04T17:37:39.249Z,32.09
2022-08-04T17:40:13.360Z,31.79
2022-08-04T17:42:41.514Z,31.45
2022-08-04T17:48:00.287Z,30.92
2022-08-04T17:50:31.262Z,30.59
2022-08-04T17:53:02.229Z,30.39
2022-08-04T17:55:44.635Z,30.39
2022-08-04T17:58:22.321Z,30.04
2022-08-04T18:03:51.515Z,29.19
2022-08-04T18:06:20.487Z,29.08
2022-08-04T18:08:54.775Z,29.09
2022-08-04T18:11:25.022Z,28.73
2022-08-04T18:13:57.104Z,28.42
2022-08-04T18:16:24.138Z,28.37
2022-08-04T18:19:11.067Z,28.27
2022-08-04T18:21:45.487Z,27.95
2022-08-04T18:24:28.513Z,27.57
2022-08-04T18:27:01.413Z,27.80
2022-08-04T18:29:31.941Z,27.36
2022-08-04T18:31:58.598Z,26.81
2022-08-04T18:34:54.422Z,26.41
2022-08-04T18:38:03.156Z,26.61
2022-08-04T18:40:10.690Z,26.79
2022-08-04T18:42:52.697Z,26.58
2022-08-04T18:45:19.905Z,26.40
2022-08-04T18:47:58.290Z,25.78
2022-08-04T18:50:59.425Z,25.62
2022-08-04T18:53:13.057Z,25.79
2022-08-04T18:55:56.756Z,25.67
2022-08-04T18:58:27.158Z,25.67
2022-08-04T19:00:55.669Z,25.19
2022-08-04T19:03:23.068Z,25.16
2022-08-04T19:05:50.383Z,25.07
2022-08-04T19:08:34.523Z,24.82
2022-08-04T19:11:37.258Z,24.93
2022-08-04T19:14:04.733Z,24.58
2022-08-04T19:16:32.608Z,24.26
2022-08-04T19:19:03.325Z,24.09
2022-08-04T19:22:00.317Z,23.58
2022-08-04T19:24:31.106Z,23.62
2022-08-04T19:27:02.294Z,23.38
2022-08-04T19:29:37.968Z,23.41
2022-08-04T19:32:15.027Z,23.44
2022-08-04T19:34:46.482Z,23.15
2022-08-04T19:37:58.392Z,23.13
2022-08-04T19:40:09.470Z,22.94
2022-08-04T19:42:36.896Z,23.02
2022-08-04T19:45:05.052Z,22.99
2022-08-04T19:48:16.953Z,22.83
2022-08-04T19:50:18.226Z,22.71
2022-08-04T19:52:51.790Z,22.59
2022-08-04T19:55:22.305Z,22.65
2022-08-04T19:57:49.699Z,22.56
2022-08-04T20:00:17.877Z,22.49
2022-08-04T20:03:00.161Z,22.19
2022-08-04T20:05:52.459Z,22.36
2022-08-04T20:08:13.722Z,22.32
2022-08-04T20:10:51.325Z,22.38
2022-08-04T20:13:19.825Z,22.08
2022-08-04T20:18:54.735Z,22.07
2022-08-04T20:21:53.671Z,22.05
2022-08-04T20:24:38.909Z,21.76
2022-08-04T20:27:11.590Z,21.76
2022-08-04T20:29:48.472Z,21.54
2022-08-04T20:32:19.478Z,21.35
2022-08-04T20:34:47.230Z,21.44
2022-08-04T20:37:15.443Z,21.18
2022-08-04T20:39:42.196Z,21.10
2022-08-04T20:42:11.486Z,21.16
2022-08-04T20:44:55.880Z,20.90
2022-08-04T20:47:22.564Z,20.92
2022-08-04T20:49:49.179Z,20.83
2022-08-04T20:52:20.383Z,20.77
2022-08-04T20:54:48.691Z,20.88
2022-08-04T20:57:20.531Z,20.80
2022-08-04T21:00:02.543Z,20.61
2022-08-04T21:02:29.374Z,20.68
2022-08-04T21:04:55.882Z,20.59
2022-08-04T21:07:24.654Z,20.64
2022-08-04T21:09:51.768Z,20.62
2022-08-04T21:12:27.656Z,20.48
2022-08-04T21:14:57.157Z,20.32
2022-08-04T21:20:12.976Z,20.15
2022-08-04T21:22:40.534Z,20.11
2022-08-04T21:25:08.122Z,20.18
2022-08-04T21:27:43.373Z,20.13
2022-08-04T21:30:23.938Z,20.07
2022-08-04T21:32:50.820Z,19.97
2022-08-04T21:35:18.682Z,19.94
2022-08-04T21:40:38.529Z,19.68
2022-08-04T21:43:05.769Z,19.79
2022-08-04T21:45:37.829Z,19.66
2022-08-04T21:48:04.761Z,19.70
2022-08-04T21:50:31.295Z,19.46
2022-08-04T21:52:57.737Z,19.63
2022-08-04T21:55:25.821Z,19.64
2022-08-04T21:58:12.462Z,19.64
2022-08-04T22:00:40.575Z,19.67
2022-08-04T22:03:11.248Z,19.60
2022-08-04T22:05:55.157Z,19.62
2022-08-04T22:08:23.450Z,19.65
2022-08-04T22:10:50.442Z,19.71
2022-08-04T22:13:22.475Z,19.43
2022-08-04T22:16:04.482Z,19.68
2022-08-04T22:18:32.198Z,19.68
2022-08-04T22:21:04.012Z,19.46
2022-08-04T22:23:45.088Z,19.48
2022-08-04T22:26:26.598Z,19.49
2022-08-04T22:28:54.117Z,19.32
2022-08-04T22:31:23.768Z,19.36
2022-08-04T22:33:54.350Z,19.32
2022-08-04T22:36:22.102Z,19.26
2022-08-04T22:38:58.008Z,19.15
2022-08-04T22:41:34.202Z,19.09
2022-08-04T22:44:16.107Z,18.90
2022-08-04T22:46:42.772Z,19.10
2022-08-04T22:49:09.373Z,18.96
2022-08-04T22:51:36.009Z,19.10
2022-08-04T22:54:02.495Z,19.09
2022-08-04T22:56:39.179Z,18.94
2022-08-04T22:59:11.385Z,19.03
2022-08-04T23:02:00.145Z,19.03
2022-08-04T23:04:26.398Z,18.98
2022-08-04T23:06:54.353Z,18.80
2022-08-04T23:09:21.566Z,18.78
2022-08-04T23:11:53.950Z,18.82
2022-08-04T23:14:29.357Z,18.90
2022-08-04T23:16:55.806Z,18.96
2022-08-04T23:19:24.717Z,18.79
2022-08-04T23:22:01.596Z,18.80
2022-08-04T23:24:29.638Z,18.88
2022-08-04T23:26:57.074Z,19.00
2022-08-04T23:29:23.999Z,19.02
2022-08-04T23:31:59.358Z,18.92
2022-08-04T23:34:26.947Z,18.82
2022-08-04T23:36:55.855Z,18.71
2022-08-04T23:39:25.837Z,18.83
2022-08-04T23:42:15.018Z,18.79
2022-08-04T23:44:48.455Z,18.93
2022-08-04T23:48:16.658Z,18.80
2022-08-04T23:50:01.338Z,18.91
2022-08-04T23:52:30.223Z,18.83
2022-08-04T23:55:00.797Z,18.87
2022-08-04T23:58:05.336Z,18.88
